Sky Ever — DSQX9 — position and weather

sailwx.info

Track history (hours):
 
Tides and Currents Weather Stations Pressure Air Temp Water Temp Dewpoint Dewpoint Depression Visibility Wind Speed Wind Dir Waves Ship Positions

Sky Ever

Last reported at 2016-Jul-21 09:12 UTC. Time now 2016-Jul-29 17:57 UTC.
Position N 34°36' E 134°55'.
Warning: this ship's position is 8 days out of date.

Length 76 m; draft 4.3 m.

Type: Cargo ship. MMSI: 441751000.

Date/timePositionNaut miles runAvg speedWind from/ knotsBaromVisibWave heightAir tempDewpointWater temp
2016-Jul-21 09:12N 34°36' E 134°55'7 8.0
2016-Jul-21 08:21N 34°36' E 135°03'6 8.1
2016-Jul-21 07:33N 34°36' E 135°11'9 8.9
2016-Jul-21 06:33N 34°36' E 135°22'3 0.4
2016-Jul-20 21:33N 34°35' E 135°26'2 1.7
2016-Jul-20 20:10N 34°35' E 135°23'0 0.0
2016-Jul-20 19:28N 34°35' E 135°23'0 0.0
2016-Jul-20 18:28N 34°35' E 135°23'0 0.0
2016-Jul-20 17:28N 34°35' E 135°23'0 0.0
2016-Jul-20 16:16N 34°35' E 135°23'0 0.0
2016-Jul-20 15:28N 34°35' E 135°23'0 0.0
2016-Jul-20 14:28N 34°35' E 135°23'0 0.0
2016-Jul-20 13:28N 34°35' E 135°23'0 0.0
2016-Jul-20 12:22N 34°35' E 135°23'0 0.0
2016-Jul-20 11:28N 34°35' E 135°23'0 0.0
2016-Jul-20 10:28N 34°35' E 135°23'0 0.0
2016-Jul-20 09:28N 34°35' E 135°23'0 0.0
2016-Jul-20 07:28N 34°35' E 135°23'0 0.0
2016-Jul-20 05:22N 34°35' E 135°23'0 0.0
2016-Jul-20 04:16N 34°35' E 135°23'0 0.1
2016-Jul-20 03:28N 34°35' E 135°23'0 0.0
2016-Jul-20 02:16N 34°35' E 135°23'0 0.0
2016-Jul-20 01:28N 34°35' E 135°23'0 0.0
2016-Jul-20 00:10N 34°35' E 135°23'0 0.0
2016-Jul-19 23:28N 34°35' E 135°23'0 0.0
2016-Jul-19 22:04N 34°35' E 135°23'0 0.0
2016-Jul-19 21:28N 34°35' E 135°23'0 0.0
2016-Jul-19 20:28N 34°35' E 135°23'0 0.0
2016-Jul-19 19:22N 34°35' E 135°23'0 0.0
2016-Jul-19 18:10N 34°35' E 135°23'0 0.0
2016-Jul-19 17:28N 34°35' E 135°23'0 0.0
2016-Jul-19 16:16N 34°35' E 135°23'0 0.0
2016-Jul-19 15:16N 34°35' E 135°23'0 0.0
2016-Jul-19 14:28N 34°35' E 135°23'0 0.0
2016-Jul-19 13:28N 34°35' E 135°23'0 0.0
2016-Jul-19 12:28N 34°35' E 135°23'0 0.0
2016-Jul-19 11:16N 34°35' E 135°23'0 0.0
2016-Jul-19 10:28N 34°35' E 135°23'0 0.0
2016-Jul-19 09:28N 34°35' E 135°23'0 0.1
2016-Jul-19 08:28N 34°35' E 135°23'0 0.0
2016-Jul-19 07:28N 34°35' E 135°23'0 0.0
2016-Jul-19 03:16N 34°35' E 135°23'0 0.0
2016-Jul-19 02:07N 34°35' E 135°23'0 0.0
2016-Jul-19 01:31N 34°35' E 135°23'0 0.0
2016-Jul-19 00:25N 34°35' E 135°23'0 0.0
2016-Jul-18 23:31N 34°35' E 135°23'0 0.0
2016-Jul-18 22:25N 34°35' E 135°23'0 0.0
2016-Jul-18 20:19N 34°35' E 135°23'0 0.0
2016-Jul-18 19:19N 34°35' E 135°23'0 0.0
2016-Jul-18 18:25N 34°35' E 135°23'0 0.0
2016-Jul-18 17:31N 34°35' E 135°23'0 0.0
2016-Jul-18 16:25N 34°35' E 135°23'0 0.0
2016-Jul-18 15:31N 34°35' E 135°23'0 0.0
2016-Jul-18 14:25N 34°35' E 135°23'0 0.0
2016-Jul-18 13:19N 34°35' E 135°23'0 0.0
2016-Jul-18 12:25N 34°35' E 135°23'0 0.0
2016-Jul-18 11:25N 34°35' E 135°23'0 0.0
2016-Jul-18 10:31N 34°35' E 135°23'0 0.0
2016-Jul-18 09:31N 34°35' E 135°23'0 0.0
2016-Jul-18 06:13N 34°35' E 135°23'3 4.1
2016-Jul-18 05:33N 34°34' E 135°20'10 9.9
2016-Jul-18 04:33N 34°28' E 135°11'10 9.5
2016-Jul-18 03:32N 34°22' E 135°02'17 8.4
2016-Jul-18 01:33N 34°08' E 134°49'  
Track history (hours):
 
Tides and Currents Weather Stations Pressure Air Temp Water Temp Dewpoint Dewpoint Depression Visibility Wind Speed Wind Dir Waves Ship Positions

Sky Ever

Last reported at 2016-Jul-21 09:12 UTC. Time now 2016-Jul-29 17:57 UTC.
Position N 34°36' E 134°55'.
Warning: this ship's position is 8 days out of date.

Length 76 m; draft 4.3 m.

Type: Cargo ship. MMSI: 441751000.

Date/timePositionNaut miles runAvg speedWind from/ knotsBaromVisibWave heightAir tempDewpointWater temp
2016-Jul-21 09:12N 34°36' E 134°55'7 8.0
2016-Jul-21 08:21N 34°36' E 135°03'6 8.1
2016-Jul-21 07:33N 34°36' E 135°11'9 8.9
2016-Jul-21 06:33N 34°36' E 135°22'3 0.4
2016-Jul-20 21:33N 34°35' E 135°26'2 1.7
2016-Jul-20 20:10N 34°35' E 135°23'0 0.0
2016-Jul-20 19:28N 34°35' E 135°23'0 0.0
2016-Jul-20 18:28N 34°35' E 135°23'0 0.0
2016-Jul-20 17:28N 34°35' E 135°23'0 0.0
2016-Jul-20 16:16N 34°35' E 135°23'0 0.0
2016-Jul-20 15:28N 34°35' E 135°23'0 0.0
2016-Jul-20 14:28N 34°35' E 135°23'0 0.0
2016-Jul-20 13:28N 34°35' E 135°23'0 0.0
2016-Jul-20 12:22N 34°35' E 135°23'0 0.0
2016-Jul-20 11:28N 34°35' E 135°23'0 0.0
2016-Jul-20 10:28N 34°35' E 135°23'0 0.0
2016-Jul-20 09:28N 34°35' E 135°23'0 0.0
2016-Jul-20 07:28N 34°35' E 135°23'0 0.0
2016-Jul-20 05:22N 34°35' E 135°23'0 0.0
2016-Jul-20 04:16N 34°35' E 135°23'0 0.1
2016-Jul-20 03:28N 34°35' E 135°23'0 0.0
2016-Jul-20 02:16N 34°35' E 135°23'0 0.0
2016-Jul-20 01:28N 34°35' E 135°23'0 0.0
2016-Jul-20 00:10N 34°35' E 135°23'0 0.0
2016-Jul-19 23:28N 34°35' E 135°23'0 0.0
2016-Jul-19 22:04N 34°35' E 135°23'0 0.0
2016-Jul-19 21:28N 34°35' E 135°23'0 0.0
2016-Jul-19 20:28N 34°35' E 135°23'0 0.0
2016-Jul-19 19:22N 34°35' E 135°23'0 0.0
2016-Jul-19 18:10N 34°35' E 135°23'0 0.0
2016-Jul-19 17:28N 34°35' E 135°23'0 0.0
2016-Jul-19 16:16N 34°35' E 135°23'0 0.0
2016-Jul-19 15:16N 34°35' E 135°23'0 0.0
2016-Jul-19 14:28N 34°35' E 135°23'0 0.0
2016-Jul-19 13:28N 34°35' E 135°23'0 0.0
2016-Jul-19 12:28N 34°35' E 135°23'0 0.0
2016-Jul-19 11:16N 34°35' E 135°23'0 0.0
2016-Jul-19 10:28N 34°35' E 135°23'0 0.0
2016-Jul-19 09:28N 34°35' E 135°23'0 0.1
2016-Jul-19 08:28N 34°35' E 135°23'0 0.0
2016-Jul-19 07:28N 34°35' E 135°23'0 0.0
2016-Jul-19 03:16N 34°35' E 135°23'0 0.0
2016-Jul-19 02:07N 34°35' E 135°23'0 0.0
2016-Jul-19 01:31N 34°35' E 135°23'0 0.0
2016-Jul-19 00:25N 34°35' E 135°23'0 0.0
2016-Jul-18 23:31N 34°35' E 135°23'0 0.0
2016-Jul-18 22:25N 34°35' E 135°23'0 0.0
2016-Jul-18 20:19N 34°35' E 135°23'0 0.0
2016-Jul-18 19:19N 34°35' E 135°23'0 0.0
2016-Jul-18 18:25N 34°35' E 135°23'0 0.0
2016-Jul-18 17:31N 34°35' E 135°23'0 0.0
2016-Jul-18 16:25N 34°35' E 135°23'0 0.0
2016-Jul-18 15:31N 34°35' E 135°23'0 0.0
2016-Jul-18 14:25N 34°35' E 135°23'0 0.0
2016-Jul-18 13:19N 34°35' E 135°23'0 0.0
2016-Jul-18 12:25N 34°35' E 135°23'0 0.0
2016-Jul-18 11:25N 34°35' E 135°23'0 0.0
2016-Jul-18 10:31N 34°35' E 135°23'0 0.0
2016-Jul-18 09:31N 34°35' E 135°23'0 0.0
2016-Jul-18 06:13N 34°35' E 135°23'3 4.1
2016-Jul-18 05:33N 34°34' E 135°20'10 9.9
2016-Jul-18 04:33N 34°28' E 135°11'10 9.5
2016-Jul-18 03:32N 34°22' E 135°02'17 8.4
2016-Jul-18 01:33N 34°08' E 134°49'  

Dump ship's entire track history